aviador You're here:

SANT Decoded Metar

TUCUMAN in ARGENTINA
Report Time2017-08-18 14:00:00
UTC Time2017-08-18 14:17:52
Flight Rules vfr VFR
Wind320° at 06 kt
W.Decomp.*RWY 01: 4.3 kt HW 4.2 kt LCW
W.Rank320° ranks 1
Current wind is above 320° avg. (5.9)
Visibility9999 m
Phenomena:N/A
Clouds:N/A
Expected CloudBase > 5,600 ft AGL from Temp-Dew spread
CeilingNone
Temp24°C (ISA +12)
Dew Point10°C (41% RH)
AAT21.9°C
QNH1006 hPa
Density Alt3,261 ft
Elevation1,476 ft
Report Wrong Elevation
Raw Report
METAR SANT 181400Z 32006KT CAVOK 24/10 Q1006=

Extra information for SANT:More info

Metar Taf Metar & Taf Last 4 Metars F.Rules Stats Wind Profile Meteogram Temp Stats Airport Information Weather charts Add Link Nearby VenuesMetar ALERT Operation Metar Decoded Social comments